Time;durP1;ratioP1;P1;durP2;ratioP2;P2;SDS_P1;SDS_P2;PMS_P1;PMS_P2;Temp;Humidity;BMP_temperature;BMP_pressure;BME280_temperature;BME280_humidity;BME280_pressure;Samples;Min_cycle;Max_cycle;Signal;HPM_P1;HPM_P2
2023/12/03 00:01:22;;;;;;;10.98;8.07;;;13.70;79.00;;;;;;4187247;28;20055;-48
2023/12/03 00:04:04;;;;;;;10.48;7.00;;;13.70;78.80;;;;;;4186950;28;20134;-52
2023/12/03 00:06:45;;;;;;;13.15;7.88;;;13.70;78.60;;;;;;4186878;28;20056;-50
2023/12/03 00:09:26;;;;;;;15.02;8.20;;;13.70;78.80;;;;;;4186866;28;20503;-47
2023/12/03 00:12:09;;;;;;;12.13;7.70;;;13.70;78.90;;;;;;4185854;28;20121;-53
2023/12/03 00:14:51;;;;;;;13.95;8.43;;;13.70;80.00;;;;;;4186977;28;20067;-52
2023/12/03 00:17:31;;;;;;;10.73;7.88;;;13.70;80.10;;;;;;4171177;28;20082;-49
2023/12/03 00:20:13;;;;;;;11.13;7.65;;;13.80;80.30;;;;;;4186141;28;20487;-50
2023/12/03 00:22:54;;;;;;;14.25;8.35;;;13.80;80.30;;;;;;4174652;28;20060;-51
2023/12/03 00:25:35;;;;;;;12.02;7.75;;;13.90;80.10;;;;;;4186481;28;20178;-51
2023/12/03 00:28:17;;;;;;;10.02;7.30;;;13.90;79.50;;;;;;4186569;28;20064;-51
2023/12/03 00:30:58;;;;;;;12.73;8.05;;;14.00;79.60;;;;;;4201864;28;20081;-52
2023/12/03 00:33:39;;;;;;;9.82;7.05;;;14.00;79.30;;;;;;4202646;28;20055;-50
2023/12/03 00:36:20;;;;;;;10.67;7.33;;;14.00;78.80;;;;;;4192943;28;20063;-51
2023/12/03 00:39:01;;;;;;;10.52;7.53;;;14.00;79.20;;;;;;4198336;28;20306;-54
2023/12/03 00:41:42;;;;;;;10.27;7.13;;;14.00;79.90;;;;;;4189452;28;20186;-54
2023/12/03 00:44:25;;;;;;;10.52;6.95;;;14.10;79.90;;;;;;4189666;28;20039;-49
2023/12/03 00:47:06;;;;;;;10.15;6.22;;;14.20;79.50;;;;;;4188693;28;20407;-53
2023/12/03 00:49:47;;;;;;;7.70;6.28;;;14.20;79.20;;;;;;4188312;28;20055;-54
2023/12/03 00:52:28;;;;;;;9.50;6.53;;;14.30;79.00;;;;;;4205688;28;20497;-54
2023/12/03 00:55:09;;;;;;;9.30;6.32;;;14.30;78.70;;;;;;4205935;28;20086;-52
2023/12/03 00:57:50;;;;;;;9.85;6.97;;;14.40;78.60;;;;;;4206212;28;20039;-48
2023/12/03 01:00:33;;;;;;;9.05;6.43;;;14.40;78.50;;;;;;4172817;28;20125;-48
2023/12/03 01:03:14;;;;;;;8.23;6.10;;;14.40;78.40;;;;;;4172367;28;20084;-52
2023/12/03 01:05:55;;;;;;;10.90;6.43;;;14.40;78.30;;;;;;4172578;28;20131;-51
2023/12/03 01:08:36;;;;;;;7.95;6.32;;;14.50;78.30;;;;;;4180216;28;20054;-49
2023/12/03 01:11:17;;;;;;;9.73;6.80;;;14.50;78.30;;;;;;4181662;28;20059;-50
2023/12/03 01:14:13;;;;;;;8.00;6.70;;;14.50;78.30;;;;;;4184148;28;20094;-54
2023/12/03 01:16:55;;;;;;;10.77;7.00;;;14.60;78.10;;;;;;4170675;28;20059;-54
2023/12/03 01:19:37;;;;;;;9.18;6.25;;;14.70;77.70;;;;;;4197710;28;20047;-50
2023/12/03 01:22:18;;;;;;;10.80;6.85;;;14.70;77.40;;;;;;4205244;28;20051;-51
2023/12/03 01:24:59;;;;;;;9.40;6.45;;;14.80;77.10;;;;;;4205058;28;20059;-51
2023/12/03 01:27:40;;;;;;;9.90;6.15;;;14.80;77.10;;;;;;4200913;28;20118;-50
2023/12/03 01:30:21;;;;;;;10.25;6.57;;;14.70;77.80;;;;;;4199628;28;20054;-52
2023/12/03 01:33:03;;;;;;;7.47;6.60;;;14.70;77.00;;;;;;4204659;28;20112;-52
2023/12/03 01:35:44;;;;;;;7.95;6.10;;;14.70;77.30;;;;;;4204957;28;20177;-52
2023/12/03 01:38:26;;;;;;;9.02;6.32;;;14.80;77.10;;;;;;4188774;28;20048;-49
2023/12/03 01:41:07;;;;;;;9.37;6.57;;;14.80;76.80;;;;;;4169417;28;20051;-53
2023/12/03 01:43:48;;;;;;;;;;;14.90;76.60;;;;;;4155361;28;20111;-53
2023/12/03 01:46:30;;;;;;;8.75;6.40;;;15.00;76.40;;;;;;4170839;28;19932;-52
2023/12/03 01:49:13;;;;;;;9.70;6.43;;;15.00;76.30;;;;;;4177328;28;20515;-54
2023/12/03 01:51:54;;;;;;;7.72;6.03;;;15.10;75.90;;;;;;4188322;28;20047;-52
2023/12/03 01:54:36;;;;;;;9.98;6.25;;;15.00;75.80;;;;;;4173481;28;20059;-52
2023/12/03 01:57:17;;;;;;;11.85;6.95;;;15.10;75.90;;;;;;4174277;28;20051;-52
2023/12/03 01:59:59;;;;;;;8.77;6.60;;;15.10;75.90;;;;;;4186380;28;20063;-49
2023/12/03 02:02:40;;;;;;;8.13;6.00;;;15.20;75.60;;;;;;4187904;28;20125;-50
2023/12/03 02:05:23;;;;;;;9.60;6.55;;;15.20;75.90;;;;;;4173113;28;20503;-52
2023/12/03 02:08:04;;;;;;;7.43;5.88;;;15.10;75.30;;;;;;4177733;28;20047;-52
2023/12/03 02:10:45;;;;;;;7.68;6.32;;;15.10;75.20;;;;;;4170754;28;20083;-51
2023/12/03 02:13:28;;;;;;;8.48;6.43;;;15.20;75.20;;;;;;4164452;28;20060;-53
2023/12/03 02:16:10;;;;;;;7.60;5.80;;;15.20;75.10;;;;;;4185694;28;20051;-55
2023/12/03 02:18:51;;;;;;;9.60;6.05;;;15.20;75.00;;;;;;4175317;28;20067;-54
2023/12/03 02:21:34;;;;;;;7.18;5.43;;;15.20;75.00;;;;;;4204853;28;20047;-54
2023/12/03 02:24:16;;;;;;;6.75;4.97;;;15.10;75.00;;;;;;4203146;28;20059;-53
2023/12/03 02:26:57;;;;;;;7.07;4.82;;;15.10;75.20;;;;;;4177827;28;20064;-50
2023/12/03 02:29:38;;;;;;;6.43;5.45;;;15.10;75.20;;;;;;4172792;28;20126;-50
2023/12/03 02:32:20;;;;;;;6.10;5.00;;;15.00;75.20;;;;;;4187993;28;20121;-52
2023/12/03 02:35:01;;;;;;;6.22;4.95;;;15.00;75.40;;;;;;4187419;28;20070;-52
2023/12/03 02:37:42;;;;;;;6.93;5.45;;;14.90;75.60;;;;;;4182236;28;20047;-51
2023/12/03 02:40:24;;;;;;;5.70;5.10;;;14.80;75.70;;;;;;4186560;28;20101;-52
2023/12/03 02:43:05;;;;;;;7.20;5.05;;;14.80;76.00;;;;;;4183686;28;20181;-53
2023/12/03 02:45:46;;;;;;;5.78;5.18;;;14.80;76.30;;;;;;4185026;28;20074;-50
2023/12/03 02:48:27;;;;;;;6.35;4.85;;;14.80;76.30;;;;;;4202544;28;20147;-50
2023/12/03 02:51:09;;;;;;;6.15;4.72;;;14.80;76.10;;;;;;4195692;28;20086;-50
2023/12/03 02:53:50;;;;;;;5.07;4.43;;;14.80;76.30;;;;;;4187181;28;20415;-52
2023/12/03 02:56:33;;;;;;;7.57;5.88;;;14.80;76.30;;;;;;4172854;28;20040;-51
2023/12/03 02:59:13;;;;;;;6.07;4.95;;;14.90;75.90;;;;;;4175003;28;20052;-53
2023/12/03 03:01:54;;;;;;;6.07;5.47;;;14.90;75.80;;;;;;4173066;28;20051;-52
2023/12/03 03:04:36;;;;;;;6.40;5.25;;;14.90;75.70;;;;;;4171996;28;20051;-54
2023/12/03 03:07:17;;;;;;;6.07;3.70;;;15.10;75.60;;;;;;4186116;28;20186;-59
2023/12/03 03:09:58;;;;;;;6.20;4.53;;;15.10;75.20;;;;;;4175877;28;20126;-51
2023/12/03 03:12:40;;;;;;;5.53;4.88;;;15.30;74.70;;;;;;4163656;28;20064;-54
2023/12/03 03:15:21;;;;;;;8.10;5.00;;;15.40;74.10;;;;;;4169760;28;20686;-50
2023/12/03 03:18:02;;;;;;;5.55;4.20;;;15.40;74.00;;;;;;4172041;28;20056;-52
2023/12/03 03:20:43;;;;;;;5.22;4.78;;;15.50;73.70;;;;;;4171523;28;20093;-52
2023/12/03 03:23:24;;;;;;;7.45;4.78;;;15.50;73.30;;;;;;4186522;28;20093;-49
2023/12/03 03:26:05;;;;;;;4.95;4.55;;;15.60;73.00;;;;;;4173345;28;20059;-49
2023/12/03 03:28:48;;;;;;;6.43;4.50;;;15.60;72.80;;;;;;4203449;28;20050;-51
2023/12/03 03:31:29;;;;;;;7.47;4.45;;;15.70;72.80;;;;;;4203311;28;20104;-54
2023/12/03 03:34:10;;;;;;;5.93;4.72;;;15.70;73.30;;;;;;4203169;28;20506;-52
2023/12/03 03:36:51;;;;;;;4.88;4.38;;;15.80;72.40;;;;;;4179928;28;20089;-53
2023/12/03 03:39:32;;;;;;;5.38;4.85;;;15.80;72.10;;;;;;4187271;28;20154;-50
2023/12/03 03:42:13;;;;;;;4.95;4.45;;;15.80;71.70;;;;;;4185476;28;20442;-52
2023/12/03 03:44:56;;;;;;;6.25;5.25;;;15.80;71.50;;;;;;4185905;28;20552;-52
2023/12/03 03:47:37;;;;;;;5.53;4.45;;;15.90;71.30;;;;;;4201700;28;20494;-50
2023/12/03 03:50:18;;;;;;;5.45;4.60;;;15.90;71.00;;;;;;4186770;28;20059;-50
2023/12/03 03:53:00;;;;;;;4.90;4.28;;;15.90;70.60;;;;;;4186146;28;20048;-51
2023/12/03 03:55:41;;;;;;;5.97;4.68;;;16.00;70.50;;;;;;4186788;28;20055;-51
2023/12/03 03:58:22;;;;;;;4.95;4.10;;;15.90;70.50;;;;;;4185278;28;20055;-52
2023/12/03 04:01:07;;;;;;;4.40;4.00;;;15.90;70.60;;;;;;4174324;28;20415;-51
2023/12/03 04:03:48;;;;;;;4.55;3.80;;;15.90;70.40;;;;;;4178352;28;20052;-51
2023/12/03 04:06:29;;;;;;;4.78;4.28;;;15.90;70.70;;;;;;4193320;28;20055;-49
2023/12/03 04:09:11;;;;;;;5.22;4.45;;;16.00;70.60;;;;;;4203603;28;20075;-52
2023/12/03 04:11:52;;;;;;;5.63;4.10;;;16.00;70.50;;;;;;4205209;28;20051;-50
2023/12/03 04:14:32;;;;;;;4.72;4.32;;;16.00;70.50;;;;;;4204850;28;20058;-52
2023/12/03 04:17:14;;;;;;;5.03;4.53;;;16.00;71.50;;;;;;4206406;28;20129;-51
2023/12/03 04:19:56;;;;;;;6.95;4.22;;;16.00;70.40;;;;;;4205195;28;20059;-48
2023/12/03 04:22:37;;;;;;;4.97;4.20;;;16.00;70.30;;;;;;4195166;28;20071;-48
2023/12/03 04:25:17;;;;;;;5.38;4.05;;;16.00;70.40;;;;;;4189468;28;20282;-51
2023/12/03 04:27:59;;;;;;;4.88;4.38;;;16.00;70.60;;;;;;4189722;28;20566;-53
2023/12/03 04:30:40;;;;;;;4.60;4.15;;;16.00;70.20;;;;;;4190009;28;20055;-49
2023/12/03 04:33:22;;;;;;;6.18;4.22;;;16.00;70.20;;;;;;4186784;28;20055;-50
2023/12/03 04:36:08;;;;;;;5.07;4.57;;;15.90;70.50;;;;;;4189153;28;20117;-51
2023/12/03 04:38:49;;;;;;;5.35;4.57;;;15.90;70.50;;;;;;4189008;28;20430;-50
2023/12/03 04:41:35;;;;;;;5.43;4.93;;;15.90;70.50;;;;;;4196724;28;20051;-47
2023/12/03 04:44:15;;;;;;;8.55;5.55;;;15.90;70.60;;;;;;4205943;28;20054;-48
2023/12/03 04:46:57;;;;;;;12.05;5.32;;;15.90;70.80;;;;;;4192338;28;20060;-48
2023/12/03 04:49:39;;;;;;;13.52;5.05;;;15.90;70.90;;;;;;4187659;28;20059;-47
2023/12/03 04:52:20;;;;;;;10.80;5.25;;;15.90;70.90;;;;;;4181471;28;20054;-52
2023/12/03 04:55:02;;;;;;;8.48;4.53;;;15.90;70.90;;;;;;4174082;28;20056;-51
2023/12/03 04:57:43;;;;;;;9.48;5.07;;;15.90;71.00;;;;;;4203236;28;20055;-50
2023/12/03 05:00:24;;;;;;;10.70;5.20;;;15.90;71.00;;;;;;4205466;28;20067;-49
2023/12/03 05:03:05;;;;;;;14.77;5.50;;;15.80;71.00;;;;;;4204762;28;20047;-51
2023/12/03 05:05:47;;;;;;;17.92;6.60;;;15.80;71.30;;;;;;4204238;28;20059;-49
2023/12/03 05:08:28;;;;;;;18.30;6.07;;;15.80;71.50;;;;;;4167964;28;20055;-50
2023/12/03 05:11:09;;;;;;;23.90;7.53;;;15.80;71.20;;;;;;4168839;28;20144;-49
2023/12/03 05:13:50;;;;;;;24.63;10.02;;;15.80;71.30;;;;;;4188686;28;20055;-47
2023/12/03 05:16:31;;;;;;;17.05;9.80;;;15.80;71.50;;;;;;4171714;28;20577;-52
2023/12/03 05:19:13;;;;;;;31.50;11.27;;;15.70;71.60;;;;;;4174726;28;20400;-50
2023/12/03 05:21:56;;;;;;;29.85;11.98;;;15.80;71.60;;;;;;4187513;28;20063;-53
2023/12/03 05:24:36;;;;;;;21.30;12.98;;;15.90;71.40;;;;;;4187275;28;20557;-47
2023/12/03 05:27:18;;;;;;;22.65;12.35;;;15.90;71.30;;;;;;4197874;28;20059;-52
2023/12/03 05:29:59;;;;;;;33.92;13.43;;;16.00;71.00;;;;;;4171148;28;20056;-51
2023/12/03 05:32:40;;;;;;;25.35;13.20;;;16.00;70.60;;;;;;4171165;28;20055;-52
2023/12/03 05:35:22;;;;;;;27.70;14.10;;;16.00;70.60;;;;;;4172103;28;20059;-49
2023/12/03 05:38:04;;;;;;;;;;;16.00;70.90;;;;;;4162877;28;20052;-52
2023/12/03 05:40:45;;;;;;;27.20;15.63;;;16.00;71.10;;;;;;4171591;28;19927;-50
2023/12/03 05:43:26;;;;;;;30.65;14.98;;;16.10;70.90;;;;;;4170390;28;20395;-52
2023/12/03 05:46:08;;;;;;;32.03;17.38;;;16.00;70.60;;;;;;4184930;28;20059;-52
2023/12/03 05:48:49;;;;;;;28.50;16.80;;;16.00;70.60;;;;;;4186858;28;20055;-51
2023/12/03 05:51:31;;;;;;;28.08;16.95;;;16.00;70.60;;;;;;4187565;28;20561;-54
2023/12/03 05:54:13;;;;;;;26.30;17.38;;;16.00;70.60;;;;;;4187265;28;20051;-53
2023/12/03 05:56:54;;;;;;;22.50;14.80;;;15.90;70.70;;;;;;4197546;28;20051;-52
2023/12/03 05:59:36;;;;;;;24.80;15.95;;;15.80;71.00;;;;;;4182285;28;20048;-53
2023/12/03 06:02:17;;;;;;;22.75;15.70;;;15.80;71.20;;;;;;4180532;28;20067;-54
2023/12/03 06:04:58;;;;;;;22.02;15.52;;;15.60;71.60;;;;;;4186128;28;20055;-54
2023/12/03 06:07:39;;;;;;;24.33;15.75;;;15.60;71.90;;;;;;4200403;28;20185;-52
2023/12/03 06:10:21;;;;;;;20.50;12.65;;;15.70;72.30;;;;;;4204648;28;20551;-52
2023/12/03 06:13:02;;;;;;;19.40;13.15;;;15.70;72.00;;;;;;4203345;28;20047;-53
2023/12/03 06:15:44;;;;;;;23.50;12.23;;;15.70;71.90;;;;;;4189832;28;20178;-54
2023/12/03 06:18:25;;;;;;;22.30;12.10;;;15.80;71.70;;;;;;4171243;28;20048;-51
2023/12/03 06:21:08;;;;;;;19.08;12.48;;;15.80;71.50;;;;;;4162098;28;20807;-50
2023/12/03 06:23:50;;;;;;;19.55;11.48;;;15.80;71.40;;;;;;4167118;28;20039;-50
2023/12/03 06:26:32;;;;;;;25.88;12.35;;;15.70;71.50;;;;;;4182339;28;20183;-54
2023/12/03 06:29:13;;;;;;;15.48;12.00;;;15.70;71.80;;;;;;4166995;28;20050;-49
2023/12/03 06:31:54;;;;;;;20.85;11.15;;;15.70;72.10;;;;;;4189678;28;20081;-51
2023/12/03 06:34:35;;;;;;;21.88;11.52;;;15.70;72.10;;;;;;4186331;28;20055;-50
2023/12/03 06:37:16;;;;;;;16.30;11.30;;;15.70;71.90;;;;;;4200542;28;20059;-49
2023/12/03 06:39:57;;;;;;;15.45;11.00;;;15.70;72.00;;;;;;4203631;28;20395;-48
2023/12/03 06:42:39;;;;;;;13.32;10.25;;;15.70;71.80;;;;;;4177268;28;20052;-52
2023/12/03 06:45:20;;;;;;;16.67;10.13;;;15.80;72.00;;;;;;4173315;28;20075;-53
2023/12/03 06:48:02;;;;;;;14.73;10.02;;;15.90;71.90;;;;;;4169274;28;20178;-50
2023/12/03 06:50:43;;;;;;;16.83;10.98;;;16.00;71.60;;;;;;4170244;28;20159;-51
2023/12/03 06:53:26;;;;;;;20.60;10.68;;;16.10;71.20;;;;;;4180567;28;20043;-50
2023/12/03 06:56:10;;;;;;;20.65;11.57;;;16.10;70.70;;;;;;4177086;28;20177;-53
2023/12/03 06:58:53;;;;;;;21.85;12.85;;;16.10;70.70;;;;;;4189977;28;20058;-50
2023/12/03 07:01:33;;;;;;;22.25;12.98;;;16.10;70.60;;;;;;4169636;28;20055;-49
2023/12/03 07:04:18;;;;;;;27.42;14.95;;;16.10;69.90;;;;;;4170505;28;20133;-47
2023/12/03 07:07:00;;;;;;;28.67;15.07;;;16.10;70.70;;;;;;4197004;28;20054;-49
2023/12/03 07:09:44;;;;;;;30.35;15.80;;;16.20;70.80;;;;;;4203285;28;20063;-50
2023/12/03 07:12:25;;;;;;;30.13;16.80;;;16.20;71.10;;;;;;4191391;28;20590;-48
2023/12/03 07:15:08;;;;;;;31.88;16.02;;;16.20;71.20;;;;;;4190119;28;20127;-53
2023/12/03 07:17:49;;;;;;;30.65;14.95;;;16.30;71.10;;;;;;4181474;28;20399;-50
2023/12/03 07:20:31;;;;;;;23.83;13.05;;;16.40;70.90;;;;;;4183080;28;20163;-53
2023/12/03 07:23:12;;;;;;;21.52;13.23;;;16.40;70.70;;;;;;4156045;28;20076;-50
2023/12/03 07:25:53;;;;;;;17.42;11.63;;;16.40;70.70;;;;;;4173563;28;20089;-50
2023/12/03 07:28:34;;;;;;;18.23;11.38;;;16.40;70.60;;;;;;4203045;28;20073;-53
2023/12/03 07:31:16;;;;;;;17.15;11.55;;;16.40;70.40;;;;;;4202527;28;20446;-49
2023/12/03 07:33:57;;;;;;;17.73;11.02;;;16.40;70.50;;;;;;4203432;28;20059;-49
2023/12/03 07:36:38;;;;;;;17.77;10.68;;;16.40;70.60;;;;;;4174755;28;20060;-48
2023/12/03 07:39:22;;;;;;;15.73;10.75;;;16.40;71.60;;;;;;4186590;28;20055;-51
2023/12/03 07:42:03;;;;;;;18.58;11.75;;;16.40;70.30;;;;;;4185967;28;20470;-51
2023/12/03 07:44:44;;;;;;;18.70;10.88;;;16.50;70.00;;;;;;4178612;28;20094;-50
2023/12/03 07:47:26;;;;;;;17.30;11.20;;;16.40;69.80;;;;;;4202714;28;20051;-46
2023/12/03 07:50:09;;;;;;;19.55;11.25;;;16.40;69.50;;;;;;4206467;28;20071;-52
2023/12/03 07:52:50;;;;;;;18.42;11.32;;;16.30;67.60;;;;;;4185553;28;20055;-51
2023/12/03 07:55:31;;;;;;;21.00;10.77;;;16.30;68.50;;;;;;4189885;28;20071;-50
2023/12/03 07:58:12;;;;;;;21.38;11.40;;;16.20;68.50;;;;;;4171804;28;20195;-50
2023/12/03 08:00:53;;;;;;;20.27;11.37;;;16.20;68.80;;;;;;4166481;28;20047;-50
2023/12/03 08:03:35;;;;;;;18.02;10.55;;;16.10;69.20;;;;;;4172175;28;20333;-51
2023/12/03 08:06:17;;;;;;;18.80;11.27;;;16.10;69.50;;;;;;4179174;28;20055;-52
2023/12/03 08:08:58;;;;;;;;;;;16.00;69.70;;;;;;4191804;28;20554;-51
2023/12/03 08:11:39;;;;;;;16.48;10.32;;;16.00;69.90;;;;;;4177526;28;19928;-49
2023/12/03 08:14:20;;;;;;;19.73;11.52;;;15.90;70.10;;;;;;4184806;28;20071;-49
2023/12/03 08:17:01;;;;;;;23.85;11.85;;;15.90;70.30;;;;;;4194583;28;20154;-52
2023/12/03 08:19:44;;;;;;;21.33;11.43;;;15.80;70.10;;;;;;4174834;28;20047;-53
2023/12/03 08:22:25;;;;;;;19.88;11.57;;;15.70;70.20;;;;;;4182011;28;20112;-51
2023/12/03 08:25:07;;;;;;;21.90;12.18;;;15.70;70.50;;;;;;4184983;28;20059;-51
2023/12/03 08:27:51;;;;;;;20.38;11.57;;;15.70;70.60;;;;;;4157754;28;20126;-49
2023/12/03 08:30:33;;;;;;;25.33;13.13;;;15.80;70.20;;;;;;4157196;28;20070;-49
2023/12/03 08:33:14;;;;;;;22.02;12.43;;;15.90;69.70;;;;;;4172292;28;20615;-52
2023/12/03 08:35:57;;;;;;;;;;;16.00;69.30;;;;;;4175498;28;20051;-50
2023/12/03 08:38:38;;;;;;;24.65;12.77;;;16.00;69.10;;;;;;4186977;28;19978;-52
2023/12/03 08:41:19;;;;;;;24.80;13.77;;;16.00;69.00;;;;;;4186062;28;20589;-54
2023/12/03 08:44:00;;;;;;;22.98;11.82;;;16.00;69.10;;;;;;4187812;28;20075;-51
2023/12/03 08:46:41;;;;;;;20.57;11.30;;;16.00;69.40;;;;;;4180791;28;20051;-56
2023/12/03 08:49:22;;;;;;;19.45;11.38;;;16.00;70.30;;;;;;4188114;28;20320;-51
2023/12/03 08:52:05;;;;;;;17.60;7.50;;;15.90;67.70;;;;;;4188161;28;20403;-49
2023/12/03 08:54:46;;;;;;;19.25;10.02;;;15.90;67.70;;;;;;4164484;28;20056;-50
2023/12/03 08:57:27;;;;;;;14.40;7.75;;;15.80;66.80;;;;;;4173470;28;20060;-50
2023/12/03 09:00:10;;;;;;;18.83;9.60;;;15.70;66.40;;;;;;4174091;28;20063;-52
2023/12/03 09:02:51;;;;;;;20.70;11.18;;;15.70;65.90;;;;;;4175169;28;20048;-51
2023/12/03 09:05:32;;;;;;;20.08;10.43;;;15.70;65.70;;;;;;4199916;28;20456;-49
2023/12/03 09:08:15;;;;;;;20.35;11.68;;;15.80;65.70;;;;;;4195938;28;20154;-51
2023/12/03 09:10:55;;;;;;;18.55;10.85;;;15.90;65.50;;;;;;4201114;28;20059;-49
2023/12/03 09:13:37;;;;;;;17.88;9.82;;;15.90;65.40;;;;;;4211779;28;20379;-48
2023/12/03 09:16:17;;;;;;;19.48;9.95;;;16.00;65.40;;;;;;4202032;28;20196;-53
2023/12/03 09:18:59;;;;;;;16.50;9.57;;;16.00;65.20;;;;;;4202085;28;20051;-53
2023/12/03 09:21:40;;;;;;;17.33;9.70;;;16.00;64.80;;;;;;4202683;28;20059;-49
2023/12/03 09:24:23;;;;;;;20.45;11.30;;;15.90;65.50;;;;;;4202416;28;20059;-52
2023/12/03 09:27:04;;;;;;;19.08;10.73;;;15.80;64.50;;;;;;4199819;28;20051;-53
2023/12/03 09:29:46;;;;;;;21.17;11.90;;;15.70;64.90;;;;;;4196433;28;20050;-50
2023/12/03 09:32:27;;;;;;;19.17;10.73;;;15.70;65.40;;;;;;4201349;28;20051;-53
2023/12/03 09:35:08;;;;;;;18.05;10.38;;;15.60;65.80;;;;;;4199619;28;20074;-49
2023/12/03 09:37:49;;;;;;;;;;;15.60;65.60;;;;;;4201849;28;20201;-49
2023/12/03 09:40:33;;;;;;;19.92;11.55;;;15.90;65.30;;;;;;4201749;28;19931;-51
2023/12/03 09:43:18;;;;;;;18.42;10.05;;;16.20;64.20;;;;;;4201288;28;20066;-50
2023/12/03 09:46:01;;;;;;;18.27;10.18;;;16.70;62.90;;;;;;4200912;28;20842;-51
2023/12/03 09:48:44;;;;;;;19.52;10.85;;;17.20;61.40;;;;;;4202554;28;20055;-50
2023/12/03 09:51:26;;;;;;;18.13;10.50;;;17.70;60.10;;;;;;4193666;28;20055;-49
2023/12/03 09:54:07;;;;;;;17.60;11.07;;;18.20;59.10;;;;;;4200502;28;20547;-48
2023/12/03 09:56:54;;;;;;;18.13;10.02;;;18.60;58.10;;;;;;4200680;28;20100;-49
2023/12/03 09:59:38;;;;;;;19.65;10.52;;;19.00;56.90;;;;;;4200818;28;20043;-49
2023/12/03 10:02:23;;;;;;;17.90;11.43;;;19.30;56.10;;;;;;4200104;28;20047;-52
2023/12/03 10:05:05;;;;;;;18.45;10.38;;;19.50;55.60;;;;;;4195648;28;20055;-51
2023/12/03 10:07:48;;;;;;;16.40;9.93;;;19.50;55.20;;;;;;4197589;28;20108;-53
2023/12/03 10:10:31;;;;;;;17.95;10.63;;;19.60;55.20;;;;;;4201919;28;20051;-51
2023/12/03 10:13:14;;;;;;;21.38;12.43;;;19.60;55.00;;;;;;4200338;28;20047;-48
2023/12/03 10:15:56;;;;;;;19.08;11.73;;;19.40;55.10;;;;;;4200293;28;20059;-51
2023/12/03 10:18:36;;;;;;;19.75;12.30;;;19.20;55.60;;;;;;4201546;28;20195;-51
2023/12/03 10:21:17;;;;;;;20.42;11.65;;;19.00;56.10;;;;;;4201780;28;20085;-53
2023/12/03 10:24:00;;;;;;;24.30;14.20;;;18.90;56.40;;;;;;4199410;28;20051;-52
2023/12/03 10:26:50;;;;;;;18.38;12.20;;;18.90;56.60;;;;;;4200717;28;20059;-53
2023/12/03 10:29:32;;;;;;;21.08;11.10;;;18.90;56.40;;;;;;4201364;28;20502;-55
2023/12/03 10:32:13;;;;;;;20.63;12.73;;;18.80;56.20;;;;;;4200082;28;20415;-53
2023/12/03 10:34:55;;;;;;;;;;;18.80;55.80;;;;;;4199278;28;20083;-50
2023/12/03 10:37:36;;;;;;;19.02;12.13;;;18.80;56.00;;;;;;4200127;28;19927;-50
2023/12/03 10:40:23;;;;;;;20.13;12.82;;;18.80;55.90;;;;;;4133701;28;20047;-51
2023/12/03 10:43:12;;;;;;;21.83;13.45;;;18.80;55.90;;;;;;4098818;28;20106;-52
2023/12/03 10:45:55;;;;;;;20.13;12.98;;;18.90;55.90;;;;;;4192072;28;20046;-53
2023/12/03 10:48:36;;;;;;;20.48;11.95;;;18.90;56.10;;;;;;4194683;28;20055;-50
2023/12/03 10:51:19;;;;;;;18.67;13.07;;;18.90;56.20;;;;;;4183093;28;20101;-51
2023/12/03 10:54:00;;;;;;;17.77;12.73;;;18.90;56.20;;;;;;4198496;28;20407;-52
2023/12/03 10:56:43;;;;;;;21.20;14.20;;;18.90;56.10;;;;;;4199093;28;20174;-52
2023/12/03 10:59:28;;;;;;;21.63;13.90;;;18.90;56.20;;;;;;4198199;28;20051;-49
2023/12/03 11:02:13;;;;;;;21.17;13.70;;;19.00;56.40;;;;;;4200884;28;20137;-48
2023/12/03 11:05:00;;;;;;;19.33;13.50;;;18.90;56.70;;;;;;4199740;28;20533;-51
2023/12/03 11:07:42;;;;;;;21.42;13.88;;;18.90;56.90;;;;;;4199309;28;20411;-49
2023/12/03 11:10:22;;;;;;;19.63;13.20;;;18.90;57.30;;;;;;4200527;28;20059;-51
2023/12/03 11:13:04;;;;;;;19.65;13.27;;;18.90;57.50;;;;;;4199693;28;20078;-47
2023/12/03 11:15:47;;;;;;;19.50;14.00;;;18.90;57.70;;;;;;4200078;28;20097;-48
2023/12/03 11:18:30;;;;;;;21.27;13.75;;;19.00;57.90;;;;;;4199895;28;20058;-55
2023/12/03 11:21:19;;;;;;;20.80;13.25;;;19.00;57.90;;;;;;4200111;28;20560;-55
2023/12/03 11:24:23;;;;;;;18.08;12.80;;;19.00;58.60;;;;;;4198977;28;20100;-55
2023/12/03 11:27:07;;;;;;;18.25;12.77;;;19.10;57.90;;;;;;4196204;28;20105;-53
2023/12/03 11:29:50;;;;;;;23.00;14.70;;;19.10;58.00;;;;;;4174218;28;20051;-55
2023/12/03 11:32:31;;;;;;;19.25;13.30;;;19.10;57.90;;;;;;4182473;28;20387;-53
2023/12/03 11:35:17;;;;;;;18.67;13.60;;;19.10;58.10;;;;;;4196615;28;20193;-53
2023/12/03 11:37:58;;;;;;;20.33;14.98;;;19.10;58.00;;;;;;4200692;28;20386;-53
2023/12/03 11:40:40;;;;;;;21.92;15.05;;;19.10;58.10;;;;;;4201291;28;20104;-52
2023/12/03 11:43:24;;;;;;;;;;;19.10;58.20;;;;;;4200837;28;20058;-53
2023/12/03 11:46:06;;;;;;;20.98;15.25;;;19.10;58.40;;;;;;4200396;28;19931;-50
2023/12/03 11:48:47;;;;;;;;;;;19.10;58.30;;;;;;4200060;28;20074;-55
2023/12/03 11:51:29;;;;;;;23.30;15.63;;;19.00;58.50;;;;;;4196511;28;20053;-55
2023/12/03 11:54:18;;;;;;;24.13;15.13;;;19.00;58.60;;;;;;4200289;28;20101;-55
2023/12/03 11:56:59;;;;;;;22.00;15.73;;;19.00;58.50;;;;;;4198916;28;20486;-51
2023/12/03 11:59:42;;;;;;;19.83;15.30;;;19.00;58.50;;;;;;4198407;28;20055;-56
2023/12/03 12:02:23;;;;;;;21.17;15.45;;;19.00;58.50;;;;;;4198570;28;20065;-53
2023/12/03 12:05:04;;;;;;;22.40;15.70;;;19.10;58.40;;;;;;4198386;28;20074;-52
2023/12/03 12:07:57;;;;;;;;;;;19.00;58.50;;;;;;4188140;28;20640;-54
2023/12/03 12:10:38;;;;;;;20.85;15.43;;;19.00;58.90;;;;;;4199976;28;19927;-55
2023/12/03 12:13:19;;;;;;;23.67;16.30;;;18.90;59.10;;;;;;4199840;28;20058;-56
2023/12/03 12:16:00;;;;;;;24.50;16.42;;;18.90;59.30;;;;;;4199349;28;20576;-54
2023/12/03 12:18:41;;;;;;;23.75;16.58;;;18.80;59.60;;;;;;4199381;28;20422;-58
2023/12/03 12:21:23;;;;;;;22.33;16.75;;;18.90;59.90;;;;;;4187305;28;20612;-56
2023/12/03 12:24:05;;;;;;;20.90;14.60;;;18.90;60.20;;;;;;4198232;28;20051;-48
2023/12/03 12:26:47;;;;;;;21.75;15.98;;;18.80;60.70;;;;;;4197988;28;20051;-52
2023/12/03 12:29:28;;;;;;;19.67;14.75;;;18.80;61.00;;;;;;4198054;28;20137;-53
2023/12/03 12:32:09;;;;;;;19.23;14.75;;;18.80;61.20;;;;;;4200663;28;20067;-55
2023/12/03 12:34:50;;;;;;;21.88;15.07;;;18.80;61.30;;;;;;4188197;28;20423;-51
2023/12/03 12:37:32;;;;;;;19.27;14.30;;;18.80;61.50;;;;;;4200751;28;20160;-51
2023/12/03 12:40:21;;;;;;;21.17;15.40;;;18.70;61.70;;;;;;4202331;28;20059;-50
2023/12/03 12:43:06;;;;;;;18.65;13.48;;;18.70;62.00;;;;;;4201928;28;20095;-52
2023/12/03 12:45:47;;;;;;;17.42;13.02;;;18.70;61.80;;;;;;4203873;28;20567;-53
2023/12/03 12:48:32;;;;;;;18.15;12.55;;;18.80;61.90;;;;;;4202623;28;20055;-53
2023/12/03 12:51:21;;;;;;;15.68;12.05;;;18.80;61.80;;;;;;4192086;28;20055;-56
2023/12/03 12:54:01;;;;;;;14.80;12.10;;;18.80;61.40;;;;;;4200824;28;20081;-52
2023/12/03 12:56:46;;;;;;;17.30;12.52;;;18.70;61.80;;;;;;4202773;28;20185;-53
2023/12/03 12:59:27;;;;;;;16.10;12.13;;;18.80;62.00;;;;;;4199558;28;20063;-55
2023/12/03 13:02:08;;;;;;;16.70;12.20;;;18.80;62.10;;;;;;4199731;28;20096;-52
2023/12/03 13:04:49;;;;;;;;;;;18.80;62.00;;;;;;4173263;28;20063;-56
2023/12/03 13:07:31;;;;;;;18.45;13.27;;;18.80;62.20;;;;;;4195432;28;19931;-54
2023/12/03 13:10:11;;;;;;;20.30;13.98;;;18.70;62.50;;;;;;4202352;28;20196;-54
2023/12/03 13:12:55;;;;;;;19.73;12.80;;;18.70;62.50;;;;;;4177131;28;20070;-49
2023/12/03 13:15:36;;;;;;;19.75;13.73;;;18.70;62.50;;;;;;4183026;28;20052;-55
2023/12/03 13:18:18;;;;;;;16.65;12.32;;;18.70;62.40;;;;;;4200203;28;20117;-47
2023/12/03 13:21:02;;;;;;;18.20;13.00;;;18.80;62.30;;;;;;4202037;28;20066;-51
2023/12/03 13:23:43;;;;;;;18.58;12.73;;;18.80;63.40;;;;;;4200512;28;20410;-54
2023/12/03 13:26:24;;;;;;;19.15;13.68;;;18.80;62.50;;;;;;4183262;28;21051;-56
2023/12/03 13:29:08;;;;;;;24.83;14.40;;;18.80;62.40;;;;;;4201736;28;20168;-48
2023/12/03 13:31:49;;;;;;;21.17;14.50;;;18.80;62.40;;;;;;4197312;28;20051;-48
2023/12/03 13:34:30;;;;;;;23.75;14.82;;;18.80;62.80;;;;;;4199195;28;20178;-54
2023/12/03 13:37:11;;;;;;;21.73;15.65;;;18.80;63.00;;;;;;4199270;28;20066;-53
2023/12/03 13:39:52;;;;;;;23.58;16.85;;;18.80;62.50;;;;;;4200717;28;20411;-52
2023/12/03 13:42:34;;;;;;;24.15;15.73;;;18.80;62.20;;;;;;4201940;28;20666;-48
2023/12/03 13:45:16;;;;;;;23.15;16.05;;;18.80;62.50;;;;;;4202659;28;20102;-56
2023/12/03 13:47:57;;;;;;;21.52;14.73;;;18.70;62.80;;;;;;4202277;28;20058;-49
2023/12/03 13:50:39;;;;;;;24.30;15.93;;;18.70;62.90;;;;;;4185220;28;20056;-51